createdAt,value
2023-05-04T00:00:59.789Z,3.57
2023-05-04T00:03:27.231Z,3.10
2023-05-04T00:05:54.776Z,3.57
2023-05-04T00:08:22.106Z,3.43
2023-05-04T00:10:49.421Z,3.57
2023-05-04T00:13:16.835Z,3.60
2023-05-04T00:15:44.275Z,3.57
2023-05-04T00:18:11.623Z,3.47
2023-05-04T00:20:39.019Z,3.63
2023-05-04T00:23:06.655Z,3.30
2023-05-04T00:25:34.023Z,3.67
2023-05-04T00:28:01.315Z,3.87
2023-05-04T00:30:28.654Z,3.60
2023-05-04T00:32:55.988Z,3.90
2023-05-04T00:35:23.441Z,3.07
2023-05-04T00:37:50.875Z,3.87
2023-05-04T00:40:18.255Z,3.70
2023-05-04T00:42:45.707Z,3.50
2023-05-04T00:45:13.068Z,4.10
2023-05-04T00:47:40.990Z,3.80
2023-05-04T00:50:09.400Z,4.10
2023-05-04T00:52:37.506Z,3.97
2023-05-04T00:55:05.038Z,3.43
2023-05-04T00:57:32.409Z,3.47
2023-05-04T00:59:59.769Z,3.20
2023-05-04T01:02:27.118Z,3.47
2023-05-04T01:04:54.536Z,4.17
2023-05-04T01:07:32.406Z,4.23
2023-05-04T01:10:04.156Z,4.07
2023-05-04T01:12:36.709Z,4.00
2023-05-04T01:15:04.273Z,3.97
2023-05-04T01:17:31.635Z,3.80
2023-05-04T01:19:58.960Z,4.07
2023-05-04T01:22:26.429Z,3.70
2023-05-04T01:24:53.823Z,4.40
2023-05-04T01:27:22.727Z,4.43
2023-05-04T01:29:52.250Z,4.70
2023-05-04T01:32:20.095Z,4.40
2023-05-04T01:34:47.553Z,3.90
2023-05-04T01:37:15.119Z,3.87
2023-05-04T01:39:42.493Z,4.00
2023-05-04T01:42:09.798Z,3.97
2023-05-04T01:44:37.168Z,4.00
2023-05-04T01:47:04.487Z,4.10
2023-05-04T01:49:31.857Z,3.80
2023-05-04T01:51:59.233Z,4.33
2023-05-04T01:54:26.796Z,4.37
2023-05-04T01:56:54.175Z,3.90
2023-05-04T01:59:21.472Z,4.30
2023-05-04T02:01:48.822Z,3.90
2023-05-04T02:04:16.137Z,4.47
2023-05-04T02:06:43.514Z,4.63
2023-05-04T02:09:11.153Z,4.33
2023-05-04T02:11:38.462Z,3.87
2023-05-04T02:14:05.866Z,3.33
2023-05-04T02:16:33.269Z,4.20
2023-05-04T02:19:00.832Z,4.10
2023-05-04T02:21:29.371Z,4.50
2023-05-04T02:23:56.740Z,4.80
2023-05-04T02:26:24.133Z,3.90
2023-05-04T02:28:51.508Z,4.10
2023-05-04T02:31:18.909Z,3.73
2023-05-04T02:33:46.230Z,4.10
2023-05-04T02:36:13.557Z,4.10
2023-05-04T02:38:41.101Z,4.33
2023-05-04T02:41:08.473Z,4.00
2023-05-04T02:43:35.770Z,4.70
2023-05-04T02:46:03.867Z,4.40
2023-05-04T02:48:31.192Z,4.07
2023-05-04T02:50:58.642Z,4.50
2023-05-04T02:53:26.017Z,4.97
2023-05-04T02:55:53.379Z,5.00
2023-05-04T02:58:20.767Z,4.20
2023-05-04T03:00:48.162Z,4.90
2023-05-04T03:03:15.577Z,4.80
2023-05-04T03:05:42.974Z,4.90
2023-05-04T03:08:10.326Z,4.73
2023-05-04T03:10:37.777Z,5.20
2023-05-04T03:13:06.052Z,4.63
2023-05-04T03:15:33.793Z,3.97
2023-05-04T03:18:01.445Z,4.27
2023-05-04T03:20:28.873Z,4.40
2023-05-04T03:22:56.248Z,4.13
2023-05-04T03:25:23.618Z,5.00
2023-05-04T03:27:50.973Z,5.10
2023-05-04T03:30:18.299Z,4.47
2023-05-04T03:32:45.782Z,4.87
2023-05-04T03:35:14.002Z,4.47
2023-05-04T03:37:41.406Z,4.07
2023-05-04T03:40:09.063Z,4.30
2023-05-04T03:42:38.066Z,4.77
2023-05-04T03:45:06.121Z,5.00
2023-05-04T03:47:41.265Z,4.90
2023-05-04T03:50:09.497Z,4.30
2023-05-04T03:52:39.610Z,4.70
2023-05-04T03:55:07.498Z,4.67
2023-05-04T03:57:34.873Z,4.83
2023-05-04T04:00:02.363Z,5.17
2023-05-04T04:02:30.971Z,4.63
2023-05-04T04:04:58.421Z,4.70
2023-05-04T04:07:25.755Z,4.30
2023-05-04T04:09:53.209Z,4.33
2023-05-04T04:12:20.639Z,4.53
2023-05-04T04:14:48.682Z,4.50
2023-05-04T04:17:16.064Z,4.80
2023-05-04T04:19:43.430Z,5.77
2023-05-04T04:22:10.813Z,5.17
2023-05-04T04:24:38.117Z,5.30
2023-05-04T04:27:05.421Z,5.40
2023-05-04T04:29:38.244Z,4.67
2023-05-04T04:32:05.927Z,4.87
2023-05-04T04:34:33.966Z,4.87
2023-05-04T04:37:01.759Z,5.20
2023-05-04T04:39:29.182Z,5.00
2023-05-04T04:41:56.546Z,5.20
2023-05-04T04:44:23.918Z,5.77
2023-05-04T04:46:51.346Z,5.53
2023-05-04T04:49:18.676Z,5.33
2023-05-04T04:51:46.045Z,5.60
2023-05-04T04:54:13.474Z,7.33
2023-05-04T04:56:41.116Z,7.13
2023-05-04T04:59:10.128Z,5.83
2023-05-04T05:01:37.818Z,7.43
2023-05-04T05:04:05.577Z,6.10
2023-05-04T05:06:32.938Z,5.67
2023-05-04T05:09:00.479Z,5.20
2023-05-04T05:11:27.851Z,5.53
2023-05-04T05:13:55.889Z,5.17
2023-05-04T05:16:23.652Z,6.00
2023-05-04T05:18:51.037Z,4.83
2023-05-04T05:21:18.412Z,4.93
2023-05-04T05:23:45.776Z,4.70
2023-05-04T05:26:13.160Z,4.80
2023-05-04T05:28:40.529Z,5.30
2023-05-04T05:31:08.049Z,4.80
2023-05-04T05:33:35.485Z,4.63
2023-05-04T05:36:03.838Z,5.50
2023-05-04T05:38:31.201Z,4.40
2023-05-04T05:40:58.588Z,4.23
2023-05-04T05:43:25.885Z,4.90
2023-05-04T05:45:53.996Z,5.10
2023-05-04T05:48:21.323Z,4.60
2023-05-04T05:50:48.628Z,5.50
2023-05-04T05:53:16.005Z,4.93
2023-05-04T05:55:43.377Z,5.20
2023-05-04T05:58:10.659Z,5.00
2023-05-04T06:00:38.040Z,4.87
2023-05-04T06:03:05.481Z,4.80
2023-05-04T06:05:34.271Z,5.07
2023-05-04T06:08:01.620Z,5.20
2023-05-04T06:10:29.121Z,5.30
2023-05-04T06:12:56.517Z,4.50
2023-05-04T06:15:23.853Z,4.80
2023-05-04T06:17:51.198Z,5.47
2023-05-04T06:20:18.546Z,6.07
2023-05-04T06:22:46.092Z,6.93
2023-05-04T06:25:13.466Z,6.53
2023-05-04T06:27:40.826Z,6.20
2023-05-04T06:30:08.873Z,5.30
2023-05-04T06:32:36.750Z,5.20
2023-05-04T06:35:04.164Z,5.70
2023-05-04T06:37:31.543Z,5.10
2023-05-04T06:39:58.921Z,5.23
2023-05-04T06:42:27.844Z,4.80
2023-05-04T06:44:55.153Z,4.87
2023-05-04T06:47:22.603Z,5.20
2023-05-04T06:49:49.986Z,4.77
2023-05-04T06:52:17.295Z,4.97
2023-05-04T06:54:44.677Z,4.40
2023-05-04T06:57:12.115Z,4.80
2023-05-04T06:59:39.424Z,5.20
2023-05-04T07:02:07.184Z,5.70
2023-05-04T07:04:34.567Z,5.03
2023-05-04T07:07:02.017Z,5.10
2023-05-04T07:09:29.380Z,5.30
2023-05-04T07:11:56.740Z,5.30
2023-05-04T07:14:24.063Z,4.80
2023-05-04T07:16:52.139Z,4.67
2023-05-04T07:19:19.594Z,4.70
2023-05-04T07:21:47.354Z,5.10
2023-05-04T07:24:14.878Z,5.70
2023-05-04T07:26:42.262Z,7.40
2023-05-04T07:29:09.734Z,5.60
2023-05-04T07:31:38.191Z,5.13
2023-05-04T07:34:05.517Z,5.10
2023-05-04T07:36:34.656Z,4.97
2023-05-04T07:39:02.126Z,5.50
2023-05-04T07:41:29.444Z,7.00
2023-05-04T07:43:56.876Z,5.97
2023-05-04T07:46:24.276Z,5.57
2023-05-04T07:48:51.654Z,5.57
2023-05-04T07:51:19.800Z,6.07
2023-05-04T07:53:47.170Z,5.40
2023-05-04T07:56:14.565Z,5.80
2023-05-04T07:58:41.945Z,4.63
2023-05-04T08:01:09.338Z,4.00
2023-05-04T08:03:36.725Z,4.57
2023-05-04T08:06:04.122Z,4.60
2023-05-04T08:08:31.483Z,4.40
2023-05-04T08:11:11.669Z,5.17
2023-05-04T08:13:27.759Z,5.60
2023-05-04T08:15:56.814Z,4.23
2023-05-04T08:18:24.169Z,3.97
2023-05-04T08:20:51.902Z,4.60
2023-05-04T08:23:19.268Z,4.00
2023-05-04T08:25:46.575Z,4.47
2023-05-04T08:28:13.972Z,5.23
2023-05-04T08:30:41.288Z,4.73
2023-05-04T08:33:08.950Z,4.13
2023-05-04T08:35:37.671Z,3.80
2023-05-04T08:38:05.051Z,4.10
2023-05-04T08:40:33.501Z,4.00
2023-05-04T08:43:01.479Z,5.20
2023-05-04T08:45:29.764Z,4.50
2023-05-04T08:47:57.115Z,4.63
2023-05-04T08:50:24.622Z,4.60
2023-05-04T08:52:53.360Z,4.40
2023-05-04T08:55:21.149Z,4.53
2023-05-04T08:57:50.646Z,4.10
2023-05-04T09:00:18.680Z,4.53
2023-05-04T09:02:46.375Z,4.03
2023-05-04T09:05:13.697Z,4.37
2023-05-04T09:07:41.069Z,4.30
2023-05-04T09:10:08.830Z,3.87
2023-05-04T09:12:37.499Z,3.50
2023-05-04T09:15:16.452Z,3.23
2023-05-04T09:17:57.043Z,4.00
2023-05-04T09:20:13.636Z,3.47
2023-05-04T09:22:41.009Z,3.30
2023-05-04T09:25:11.919Z,3.10
2023-05-04T09:27:41.690Z,3.50
2023-05-04T09:30:09.207Z,3.60
2023-05-04T09:32:37.532Z,3.50
2023-05-04T09:35:05.294Z,3.13
2023-05-04T09:37:34.353Z,3.30
2023-05-04T09:40:01.663Z,3.60
2023-05-04T09:42:29.596Z,3.70
2023-05-04T09:45:01.521Z,3.30
2023-05-04T09:47:33.210Z,3.80
2023-05-04T09:50:02.960Z,4.70
2023-05-04T09:52:32.482Z,5.03
2023-05-04T09:54:59.918Z,5.07
2023-05-04T09:57:27.219Z,5.00
2023-05-04T09:59:55.712Z,4.23
2023-05-04T10:02:23.608Z,5.07
2023-05-04T10:04:52.287Z,6.80
2023-05-04T10:07:20.640Z,8.00
2023-05-04T10:09:49.205Z,5.90
2023-05-04T10:12:16.572Z,6.60
2023-05-04T10:14:46.172Z,6.10
2023-05-04T10:17:30.362Z,6.63
2023-05-04T10:20:02.189Z,6.33
2023-05-04T10:22:37.284Z,6.40
2023-05-04T10:25:09.083Z,5.87
2023-05-04T10:27:40.899Z,6.43
2023-05-04T10:30:08.579Z,5.73
2023-05-04T10:32:37.613Z,6.17
2023-05-04T10:35:06.803Z,5.60
2023-05-04T10:37:34.636Z,6.37
2023-05-04T10:40:02.008Z,5.50
2023-05-04T10:42:29.324Z,5.43
2023-05-04T10:44:57.664Z,6.10
2023-05-04T10:47:35.482Z,6.10
2023-05-04T10:50:06.374Z,4.80
2023-05-04T10:52:35.277Z,5.70
2023-05-04T10:55:07.970Z,7.10
2023-05-04T10:57:35.427Z,5.83
2023-05-04T11:00:04.388Z,6.00
2023-05-04T11:02:33.726Z,6.60
2023-05-04T11:05:05.512Z,6.20
2023-05-04T11:07:37.275Z,6.63
2023-05-04T11:10:05.886Z,6.00
2023-05-04T11:12:33.486Z,6.33
2023-05-04T11:15:05.280Z,5.97
2023-05-04T11:17:33.007Z,5.87
2023-05-04T11:20:00.896Z,6.60
2023-05-04T11:22:28.926Z,5.63
2023-05-04T11:24:56.473Z,5.13
2023-05-04T11:27:28.964Z,5.67
2023-05-04T11:30:00.098Z,5.53
2023-05-04T11:32:37.802Z,5.30
2023-05-04T11:35:06.977Z,5.97
2023-05-04T11:37:44.170Z,6.13
2023-05-04T11:40:17.706Z,5.70
2023-05-04T11:42:45.414Z,5.77
2023-05-04T11:45:23.360Z,4.63
2023-05-04T11:47:51.932Z,5.57
2023-05-04T11:50:21.063Z,4.93
2023-05-04T11:52:48.814Z,4.67
2023-05-04T11:55:27.179Z,4.67
2023-05-04T11:58:00.857Z,4.27
2023-05-04T12:00:40.398Z,4.20
2023-05-04T12:03:09.340Z,4.80
2023-05-04T12:05:37.373Z,4.50
2023-05-04T12:08:06.660Z,5.33
2023-05-04T12:10:34.978Z,4.37
2023-05-04T12:13:02.700Z,4.23
2023-05-04T12:15:34.569Z,3.90
2023-05-04T12:18:03.118Z,4.70
2023-05-04T12:20:31.546Z,4.80
2023-05-04T12:22:59.025Z,4.90
2023-05-04T12:25:26.414Z,3.80
2023-05-04T12:27:53.823Z,4.30
2023-05-04T12:30:21.188Z,4.20
2023-05-04T12:32:48.769Z,4.20
2023-05-04T12:35:16.889Z,4.70
2023-05-04T12:37:44.750Z,4.47
2023-05-04T12:40:25.211Z,4.50
2023-05-04T12:42:42.148Z,5.00
2023-05-04T12:45:10.082Z,4.37
2023-05-04T12:47:37.491Z,4.77
2023-05-04T12:50:05.019Z,4.60
2023-05-04T12:52:32.415Z,4.10
2023-05-04T12:54:59.839Z,5.17
2023-05-04T12:57:27.225Z,4.10
2023-05-04T12:59:54.614Z,4.60
2023-05-04T13:02:22.054Z,4.63
2023-05-04T13:04:50.345Z,4.60
2023-05-04T13:07:17.712Z,4.60
2023-05-04T13:09:45.017Z,4.23
2023-05-04T13:12:12.421Z,4.70
2023-05-04T13:14:40.156Z,4.27
2023-05-04T13:17:07.614Z,4.47
2023-05-04T13:19:34.990Z,3.80
2023-05-04T13:22:02.367Z,4.30
2023-05-04T13:24:29.737Z,4.40
2023-05-04T13:26:58.142Z,3.93
2023-05-04T13:29:25.498Z,4.70
2023-05-04T13:31:52.954Z,4.40
2023-05-04T13:34:20.452Z,4.87
2023-05-04T13:36:47.809Z,4.50
2023-05-04T13:39:15.290Z,5.00
2023-05-04T13:41:42.643Z,5.00
2023-05-04T13:44:09.964Z,4.43
2023-05-04T13:46:37.833Z,5.43
2023-05-04T13:49:05.199Z,4.60
2023-05-04T13:51:32.636Z,5.00
2023-05-04T13:54:02.334Z,4.53
2023-05-04T13:56:28.941Z,4.53
2023-05-04T13:58:56.260Z,4.93
2023-05-04T14:01:23.686Z,4.67
2023-05-04T14:03:51.159Z,4.80
2023-05-04T14:06:18.515Z,4.40
2023-05-04T14:08:45.906Z,4.60
2023-05-04T14:11:13.567Z,4.40
2023-05-04T14:13:40.932Z,4.53
2023-05-04T14:16:08.317Z,3.60
2023-05-04T14:18:35.688Z,4.40
2023-05-04T14:21:03.061Z,4.40
2023-05-04T14:23:30.386Z,4.53
2023-05-04T14:25:57.788Z,4.63
2023-05-04T14:28:26.005Z,4.50
2023-05-04T14:30:53.326Z,4.63
2023-05-04T14:33:20.776Z,5.00
2023-05-04T14:35:48.366Z,5.20
2023-05-04T14:38:15.895Z,4.80
2023-05-04T14:40:43.391Z,4.20
2023-05-04T14:43:10.716Z,5.40
2023-05-04T14:45:38.390Z,4.50
2023-05-04T14:48:06.739Z,4.47
2023-05-04T14:50:34.106Z,4.40
2023-05-04T14:53:01.482Z,4.07
2023-05-04T14:55:28.884Z,3.90
2023-05-04T14:57:56.830Z,4.20
2023-05-04T15:00:24.285Z,4.60
2023-05-04T15:02:51.868Z,4.50
2023-05-04T15:05:19.956Z,3.80
2023-05-04T15:07:47.393Z,4.03
2023-05-04T15:10:15.312Z,4.73
2023-05-04T15:12:43.214Z,4.40
2023-05-04T15:15:11.084Z,3.60
2023-05-04T15:17:38.590Z,4.10
2023-05-04T15:20:06.687Z,3.63
2023-05-04T15:22:34.326Z,3.70
2023-05-04T15:25:01.938Z,4.30
2023-05-04T15:27:29.280Z,4.27
2023-05-04T15:29:56.592Z,3.87
2023-05-04T15:32:24.078Z,4.70
2023-05-04T15:35:01.630Z,3.47
2023-05-04T15:37:20.391Z,4.37
2023-05-04T15:39:47.698Z,3.90
2023-05-04T15:42:15.071Z,3.77
2023-05-04T15:44:42.451Z,4.20
2023-05-04T15:47:11.509Z,3.87
2023-05-04T15:49:39.592Z,3.60
2023-05-04T15:52:07.545Z,4.00
2023-05-04T15:54:35.004Z,3.83
2023-05-04T15:57:02.855Z,3.70
2023-05-04T15:59:30.603Z,4.07
2023-05-04T16:01:57.967Z,3.80
2023-05-04T16:04:25.355Z,4.00
2023-05-04T16:06:52.721Z,4.37
2023-05-04T16:09:20.674Z,4.10
2023-05-04T16:11:48.042Z,3.90
2023-05-04T16:14:16.024Z,4.23
2023-05-04T16:16:43.898Z,3.50
2023-05-04T16:19:11.811Z,3.80
2023-05-04T16:21:39.345Z,3.50
2023-05-04T16:24:07.620Z,3.50
2023-05-04T16:26:35.072Z,3.53
2023-05-04T16:29:02.455Z,3.90
2023-05-04T16:31:29.892Z,4.00
2023-05-04T16:33:57.228Z,4.20
2023-05-04T16:36:24.612Z,5.23
2023-05-04T16:38:52.077Z,4.83
2023-05-04T16:41:19.455Z,3.27
2023-05-04T16:43:48.716Z,3.17
2023-05-04T16:46:16.824Z,3.13
2023-05-04T16:48:44.219Z,4.10
2023-05-04T16:51:13.235Z,4.30
2023-05-04T16:53:40.610Z,3.30
2023-05-04T16:56:08.340Z,3.73
2023-05-04T16:58:35.875Z,3.40
2023-05-04T17:01:03.185Z,3.30
2023-05-04T17:03:32.520Z,3.03
2023-05-04T17:05:59.922Z,3.80
2023-05-04T17:08:27.447Z,3.40
2023-05-04T17:10:56.302Z,2.90
2023-05-04T17:13:23.696Z,3.63
2023-05-04T17:15:51.112Z,3.83
2023-05-04T17:18:18.459Z,3.03
2023-05-04T17:20:45.920Z,3.63
2023-05-04T17:23:13.321Z,3.30
2023-05-04T17:25:41.323Z,3.10
2023-05-04T17:28:08.683Z,2.83
2023-05-04T17:30:36.860Z,3.90
2023-05-04T17:33:04.308Z,3.07
2023-05-04T17:35:31.734Z,3.97
2023-05-04T17:37:59.237Z,3.17
2023-05-04T17:40:27.375Z,3.10
2023-05-04T17:42:55.113Z,3.50
2023-05-04T17:45:22.647Z,2.90
2023-05-04T17:47:51.545Z,3.03
2023-05-04T17:50:19.045Z,2.80
2023-05-04T17:52:47.886Z,2.90
2023-05-04T17:55:15.325Z,3.20
2023-05-04T17:57:42.727Z,2.50
2023-05-04T18:00:10.573Z,3.00
2023-05-04T18:02:37.927Z,2.90
2023-05-04T18:05:05.595Z,3.30
2023-05-04T18:07:32.960Z,3.20
2023-05-04T18:10:00.557Z,2.87
2023-05-04T18:12:28.092Z,3.10
2023-05-04T18:14:55.406Z,2.80
2023-05-04T18:17:22.800Z,3.67
2023-05-04T18:19:50.179Z,2.97
2023-05-04T18:22:17.820Z,3.63
2023-05-04T18:24:46.865Z,3.50
2023-05-04T18:27:14.233Z,3.50
2023-05-04T18:29:41.573Z,4.00
2023-05-04T18:32:10.489Z,3.80
2023-05-04T18:34:37.839Z,3.30
2023-05-04T18:37:05.193Z,3.83
2023-05-04T18:39:32.586Z,3.40
2023-05-04T18:42:01.606Z,3.73
2023-05-04T18:44:29.897Z,3.43
2023-05-04T18:46:57.379Z,3.60
2023-05-04T18:49:24.775Z,3.67
2023-05-04T18:51:52.131Z,4.20
2023-05-04T18:54:19.457Z,3.70
2023-05-04T18:56:46.860Z,3.40
2023-05-04T18:59:14.181Z,3.87
2023-05-04T19:01:41.884Z,3.90
2023-05-04T19:04:09.340Z,4.10
2023-05-04T19:06:36.694Z,4.23
2023-05-04T19:09:04.029Z,4.20
2023-05-04T19:11:31.407Z,3.33
2023-05-04T19:13:58.805Z,3.80
2023-05-04T19:16:27.887Z,3.70
2023-05-04T19:18:55.541Z,4.07
2023-05-04T19:21:22.889Z,4.53
2023-05-04T19:23:50.229Z,4.20
2023-05-04T19:26:17.606Z,3.77
2023-05-04T19:28:44.994Z,3.97
2023-05-04T19:31:12.419Z,3.63
2023-05-04T19:33:47.944Z,4.27
2023-05-04T19:36:09.042Z,3.93
2023-05-04T19:38:37.536Z,4.30
2023-05-04T19:41:04.899Z,3.87
2023-05-04T19:43:33.462Z,4.00
2023-05-04T19:46:02.504Z,3.50
2023-05-04T19:48:29.893Z,3.73
2023-05-04T19:50:57.253Z,4.33
2023-05-04T19:53:24.577Z,4.47
2023-05-04T19:55:52.734Z,3.77
2023-05-04T19:58:21.818Z,4.50
2023-05-04T20:00:49.272Z,3.97
2023-05-04T20:03:17.677Z,4.70
2023-05-04T20:05:45.297Z,3.90
2023-05-04T20:08:12.714Z,3.87
2023-05-04T20:10:40.802Z,3.87
2023-05-04T20:13:08.318Z,4.70
2023-05-04T20:15:36.020Z,3.30
2023-05-04T20:18:03.477Z,3.87
2023-05-04T20:20:30.820Z,3.70
2023-05-04T20:22:58.312Z,3.67
2023-05-04T20:25:27.159Z,3.33
2023-05-04T20:27:54.479Z,3.33
2023-05-04T20:30:22.303Z,3.40
2023-05-04T20:32:49.967Z,3.50
2023-05-04T20:35:17.566Z,3.20
2023-05-04T20:37:44.960Z,3.03
2023-05-04T20:40:12.582Z,3.30
2023-05-04T20:42:40.557Z,3.33
2023-05-04T20:45:08.326Z,3.07
2023-05-04T20:47:36.231Z,3.77
2023-05-04T20:50:03.590Z,3.20
2023-05-04T20:52:31.083Z,3.63
2023-05-04T20:54:58.425Z,3.20
2023-05-04T20:57:25.870Z,3.37
2023-05-04T20:59:53.807Z,3.37
2023-05-04T21:02:21.736Z,3.63
2023-05-04T21:04:49.540Z,3.00
2023-05-04T21:07:16.924Z,2.93
2023-05-04T21:09:44.462Z,3.13
2023-05-04T21:12:11.798Z,3.37
2023-05-04T21:14:39.114Z,3.10
2023-05-04T21:17:07.065Z,3.30
2023-05-04T21:19:34.458Z,2.90
2023-05-04T21:22:01.843Z,3.30
2023-05-04T21:24:31.107Z,3.27
2023-05-04T21:26:59.181Z,3.00
2023-05-04T21:29:26.816Z,3.77
2023-05-04T21:31:54.269Z,3.73
2023-05-04T21:34:21.622Z,3.40
2023-05-04T21:36:48.983Z,3.60
2023-05-04T21:39:16.640Z,3.37
2023-05-04T21:41:44.046Z,3.47
2023-05-04T21:44:11.472Z,3.43
2023-05-04T21:46:38.871Z,3.37
2023-05-04T21:49:07.670Z,3.37
2023-05-04T21:51:35.052Z,3.60
2023-05-04T21:54:02.455Z,3.30
2023-05-04T21:56:29.905Z,3.43
2023-05-04T21:58:57.362Z,3.27
2023-05-04T22:01:24.756Z,3.30
2023-05-04T22:03:52.760Z,3.40
2023-05-04T22:06:21.468Z,3.30
2023-05-04T22:08:49.031Z,3.70
2023-05-04T22:11:16.408Z,3.80
2023-05-04T22:13:43.791Z,4.20
2023-05-04T22:16:11.195Z,3.53
2023-05-04T22:18:38.642Z,3.53
2023-05-04T22:21:06.315Z,3.37
2023-05-04T22:23:33.689Z,3.63
2023-05-04T22:26:01.006Z,3.60
2023-05-04T22:28:28.314Z,3.13
2023-05-04T22:30:55.775Z,3.27
2023-05-04T22:33:23.161Z,4.33
2023-05-04T22:35:50.570Z,3.57
2023-05-04T22:38:17.937Z,3.73
2023-05-04T22:40:45.333Z,3.97
2023-05-04T22:43:12.701Z,3.37
2023-05-04T22:45:40.855Z,3.57
2023-05-04T22:48:08.453Z,4.47
2023-05-04T22:50:35.817Z,4.00
2023-05-04T22:53:03.589Z,3.80
2023-05-04T22:55:30.965Z,4.30
2023-05-04T22:57:58.355Z,3.53
2023-05-04T23:00:25.858Z,3.80
2023-05-04T23:02:53.895Z,3.83
2023-05-04T23:05:21.266Z,3.70
2023-05-04T23:07:50.804Z,3.90
2023-05-04T23:10:18.365Z,3.60
2023-05-04T23:12:45.801Z,3.40
2023-05-04T23:15:13.936Z,3.70
2023-05-04T23:17:41.456Z,3.67
2023-05-04T23:20:13.122Z,3.63
2023-05-04T23:22:40.579Z,3.80
2023-05-04T23:25:08.078Z,3.30
2023-05-04T23:27:35.476Z,3.63
2023-05-04T23:30:03.024Z,4.10
2023-05-04T23:32:30.467Z,3.57
2023-05-04T23:34:57.986Z,4.07
2023-05-04T23:37:25.437Z,4.20
2023-05-04T23:39:52.815Z,4.00
2023-05-04T23:42:20.300Z,3.20
2023-05-04T23:44:47.652Z,3.50
2023-05-04T23:47:15.024Z,4.23
2023-05-04T23:49:42.337Z,3.90
2023-05-04T23:52:09.666Z,3.80
2023-05-04T23:54:37.029Z,3.70
2023-05-04T23:57:04.782Z,3.57
2023-05-04T23:59:32.625Z,3.33
